createdAt,value
2022-09-27T00:02:14.392Z,14.42
2022-09-27T00:04:41.014Z,15.43
2022-09-27T00:07:07.680Z,14.85
2022-09-27T00:09:34.753Z,15.33
2022-09-27T00:12:01.705Z,14.03
2022-09-27T00:14:28.565Z,15.24
2022-09-27T00:16:56.511Z,13.82
2022-09-27T00:19:25.744Z,14.98
2022-09-27T00:21:52.687Z,14.54
2022-09-27T00:24:23.308Z,15.03
2022-09-27T00:26:53.365Z,14.82
2022-09-27T00:29:23.272Z,13.87
2022-09-27T00:31:49.998Z,15.42
2022-09-27T00:34:22.580Z,14.60
2022-09-27T00:36:55.471Z,15.43
2022-09-27T00:39:22.514Z,14.81
2022-09-27T00:41:49.289Z,14.87
2022-09-27T00:44:25.041Z,14.80
2022-09-27T00:47:22.812Z,15.36
2022-09-27T00:49:54.069Z,15.33
2022-09-27T00:52:37.129Z,15.35
2022-09-27T00:55:27.744Z,15.25
2022-09-27T00:57:57.114Z,15.15
2022-09-27T01:00:26.179Z,15.04
2022-09-27T01:02:58.610Z,14.96
2022-09-27T01:05:27.789Z,14.29
2022-09-27T01:08:00.839Z,15.11
2022-09-27T01:10:33.519Z,15.03
2022-09-27T01:13:36.165Z,15.20
2022-09-27T01:16:36.264Z,13.91
2022-09-27T01:19:23.883Z,14.64
2022-09-27T01:21:59.371Z,15.22
2022-09-27T01:24:32.190Z,15.24
2022-09-27T01:27:33.014Z,15.23
2022-09-27T01:30:21.468Z,15.22
2022-09-27T01:32:57.247Z,15.20
2022-09-27T01:35:59.493Z,13.81
2022-09-27T01:38:35.178Z,15.19
2022-09-27T01:41:10.892Z,15.19
2022-09-27T01:44:03.841Z,14.87
2022-09-27T01:46:58.115Z,15.22
2022-09-27T01:49:55.132Z,15.24
2022-09-27T01:52:29.519Z,14.78
2022-09-27T01:54:59.085Z,14.71
2022-09-27T01:57:59.656Z,15.21
2022-09-27T02:00:32.721Z,15.19
2022-09-27T02:03:07.670Z,15.17
2022-09-27T02:05:44.019Z,15.10
2022-09-27T02:08:52.883Z,15.04
2022-09-27T02:11:56.050Z,14.36
2022-09-27T02:14:37.862Z,12.86
2022-09-27T02:17:21.719Z,13.51
2022-09-27T02:20:08.170Z,14.34
2022-09-27T02:22:50.416Z,14.22
2022-09-27T02:25:41.946Z,14.20
2022-09-27T02:28:15.508Z,14.24
2022-09-27T02:30:43.022Z,12.91
2022-09-27T02:33:27.083Z,12.30
2022-09-27T02:35:56.554Z,14.16
2022-09-27T02:38:24.128Z,14.18
2022-09-27T02:40:51.664Z,13.66
2022-09-27T02:43:19.478Z,14.23
2022-09-27T02:46:31.473Z,13.18
2022-09-27T02:49:42.488Z,14.22
2022-09-27T02:52:39.259Z,14.28
2022-09-27T02:55:15.115Z,14.34
2022-09-27T02:58:17.202Z,14.42
2022-09-27T03:01:32.601Z,14.53
2022-09-27T03:04:31.828Z,14.63
2022-09-27T03:06:59.206Z,14.49
2022-09-27T03:09:30.353Z,14.73
2022-09-27T03:11:57.129Z,14.44
2022-09-27T03:14:26.109Z,13.77
2022-09-27T03:17:04.289Z,13.85
2022-09-27T03:19:53.898Z,14.62
2022-09-27T03:23:04.422Z,13.63
2022-09-27T03:25:31.133Z,14.20
2022-09-27T03:28:00.334Z,14.83
2022-09-27T03:30:27.282Z,13.32
2022-09-27T03:32:54.071Z,14.45
2022-09-27T03:35:41.807Z,14.05
2022-09-27T03:38:11.108Z,13.97
2022-09-27T03:40:40.791Z,14.79
2022-09-27T03:43:08.487Z,15.10
2022-09-27T03:45:40.025Z,14.25
2022-09-27T03:48:12.289Z,14.59
2022-09-27T03:50:38.978Z,14.39
2022-09-27T03:53:13.288Z,14.38
2022-09-27T03:55:40.007Z,14.71
2022-09-27T03:58:07.145Z,14.72
2022-09-27T04:00:34.300Z,14.27
2022-09-27T04:03:03.252Z,14.17
2022-09-27T04:05:56.059Z,14.86
2022-09-27T04:08:32.725Z,14.57
2022-09-27T04:11:04.310Z,14.60
2022-09-27T04:13:34.538Z,14.81
2022-09-27T04:16:08.316Z,14.36
2022-09-27T04:18:51.597Z,14.36
2022-09-27T04:21:36.612Z,15.18
2022-09-27T04:24:05.361Z,15.07
2022-09-27T04:26:32.354Z,15.34
2022-09-27T04:29:09.784Z,14.89
2022-09-27T04:31:44.538Z,15.04
2022-09-27T04:34:17.238Z,14.68
2022-09-27T04:36:43.996Z,15.40
2022-09-27T04:39:16.433Z,14.62
2022-09-27T04:41:45.826Z,14.62
2022-09-27T04:44:15.391Z,14.87
2022-09-27T04:46:45.582Z,14.68
2022-09-27T04:49:12.711Z,13.90
2022-09-27T04:51:44.663Z,15.32
2022-09-27T04:54:13.789Z,15.42
2022-09-27T04:56:52.212Z,14.30
2022-09-27T04:59:24.481Z,14.86
2022-09-27T05:01:51.264Z,13.80
2022-09-27T05:04:43.472Z,14.91
2022-09-27T05:07:12.486Z,14.79
2022-09-27T05:09:45.537Z,14.05
2022-09-27T05:12:14.655Z,14.38
2022-09-27T05:14:53.987Z,15.57
2022-09-27T05:17:44.208Z,15.65
2022-09-27T05:20:37.155Z,15.21
2022-09-27T05:23:13.596Z,14.69
2022-09-27T05:25:43.266Z,13.93
2022-09-27T05:28:12.425Z,15.46
2022-09-27T05:30:41.802Z,14.66
2022-09-27T05:33:14.669Z,15.33
2022-09-27T05:35:54.774Z,15.86
2022-09-27T05:38:28.567Z,15.62
2022-09-27T05:41:03.451Z,15.59
2022-09-27T05:43:31.742Z,14.78
2022-09-27T05:46:01.521Z,14.78
2022-09-27T05:48:31.602Z,14.73
2022-09-27T05:51:06.352Z,15.57
2022-09-27T05:53:36.885Z,15.92
2022-09-27T05:56:09.162Z,14.38
2022-09-27T05:59:10.248Z,15.12
2022-09-27T06:02:05.390Z,14.83
2022-09-27T06:04:47.080Z,14.13
2022-09-27T06:07:32.703Z,15.95
2022-09-27T06:10:06.000Z,15.76
2022-09-27T06:12:35.229Z,14.90
2022-09-27T06:15:04.219Z,16.01
2022-09-27T06:17:35.979Z,16.02
2022-09-27T06:20:09.741Z,15.56
2022-09-27T06:22:37.029Z,15.53
2022-09-27T06:25:08.130Z,16.07
2022-09-27T06:27:42.142Z,15.64
2022-09-27T06:30:21.307Z,14.93
2022-09-27T06:33:01.494Z,16.77
2022-09-27T06:35:38.449Z,14.49
2022-09-27T06:38:11.459Z,16.83
2022-09-27T06:40:47.615Z,16.77
2022-09-27T06:43:37.134Z,15.57
2022-09-27T06:46:24.361Z,16.20
2022-09-27T06:49:07.674Z,16.06
2022-09-27T06:51:36.689Z,16.26
2022-09-27T06:54:03.420Z,15.72
2022-09-27T06:56:32.466Z,16.19
2022-09-27T06:59:20.251Z,17.07
2022-09-27T07:01:50.223Z,15.94
2022-09-27T07:04:37.733Z,16.48
2022-09-27T07:07:28.384Z,16.08
2022-09-27T07:09:55.132Z,17.04
2022-09-27T07:12:25.880Z,17.25
2022-09-27T07:14:56.020Z,16.56
2022-09-27T07:17:23.184Z,16.65
2022-09-27T07:19:53.129Z,16.52
2022-09-27T07:22:23.151Z,16.16
2022-09-27T07:24:59.960Z,16.15
2022-09-27T07:27:26.722Z,17.32
2022-09-27T07:29:54.308Z,16.68
2022-09-27T07:32:21.740Z,17.09
2022-09-27T07:34:48.517Z,16.70
2022-09-27T07:37:17.608Z,17.14
2022-09-27T07:39:47.368Z,16.08
2022-09-27T07:42:18.669Z,17.26
2022-09-27T07:44:48.740Z,18.11
2022-09-27T07:47:34.467Z,17.40
2022-09-27T07:50:14.539Z,18.21
2022-09-27T07:52:54.756Z,17.55
2022-09-27T07:55:44.451Z,18.34
2022-09-27T07:58:16.658Z,18.46
2022-09-27T08:00:45.959Z,17.37
2022-09-27T08:03:18.041Z,18.59
2022-09-27T08:05:47.512Z,18.92
2022-09-27T08:08:15.920Z,19.01
2022-09-27T08:10:47.934Z,17.98
2022-09-27T08:13:20.437Z,19.00
2022-09-27T08:15:49.142Z,18.67
2022-09-27T08:18:17.628Z,18.57
2022-09-27T08:21:10.709Z,18.47
2022-09-27T08:23:43.552Z,18.66
2022-09-27T08:26:42.843Z,18.23
2022-09-27T08:29:19.944Z,18.62
2022-09-27T08:31:54.799Z,18.86
2022-09-27T08:34:28.606Z,18.48
2022-09-27T08:36:58.151Z,18.70
2022-09-27T08:39:25.158Z,17.98
2022-09-27T08:42:17.661Z,18.45
2022-09-27T08:45:03.389Z,17.22
2022-09-27T08:47:40.449Z,18.23
2022-09-27T08:50:27.878Z,18.19
2022-09-27T08:52:57.789Z,18.16
2022-09-27T08:55:43.946Z,18.21
2022-09-27T08:58:33.148Z,16.85
2022-09-27T09:01:07.267Z,18.01
2022-09-27T09:03:55.542Z,17.95
2022-09-27T09:06:36.422Z,18.16
2022-09-27T09:09:15.263Z,18.45
2022-09-27T09:12:15.013Z,18.17
2022-09-27T09:14:57.047Z,18.21
2022-09-27T09:17:45.057Z,18.13
2022-09-27T09:20:55.180Z,18.01
2022-09-27T09:23:51.010Z,17.49
2022-09-27T09:26:27.015Z,18.53
2022-09-27T09:29:06.288Z,18.57
2022-09-27T09:31:35.985Z,18.60
2022-09-27T09:34:12.574Z,18.39
2022-09-27T09:36:41.365Z,18.71
2022-09-27T09:39:22.107Z,18.78
2022-09-27T09:42:12.964Z,18.34
2022-09-27T09:44:54.265Z,18.77
2022-09-27T09:47:35.695Z,18.82
2022-09-27T09:50:16.629Z,18.69
2022-09-27T09:52:50.285Z,17.64
2022-09-27T09:55:24.107Z,18.40
2022-09-27T09:58:04.440Z,18.28
2022-09-27T10:00:43.253Z,17.86
2022-09-27T10:03:10.361Z,17.94
2022-09-27T10:05:37.757Z,17.75
2022-09-27T10:08:16.090Z,17.43
2022-09-27T10:10:43.017Z,17.88
2022-09-27T10:13:20.317Z,17.56
2022-09-27T10:16:04.714Z,17.98
2022-09-27T10:18:33.124Z,17.24
2022-09-27T10:21:03.292Z,17.86
2022-09-27T10:23:30.432Z,17.81
2022-09-27T10:26:13.171Z,17.33
2022-09-27T10:28:51.096Z,17.70
2022-09-27T10:31:37.884Z,16.90
2022-09-27T10:34:20.779Z,17.23
2022-09-27T10:37:12.076Z,17.55
2022-09-27T10:39:48.407Z,17.47
2022-09-27T10:42:34.163Z,16.97
2022-09-27T10:45:22.887Z,17.60
2022-09-27T10:47:57.456Z,17.51
2022-09-27T10:50:58.856Z,16.89
2022-09-27T10:53:37.139Z,17.39
2022-09-27T10:56:32.078Z,17.53
2022-09-27T10:59:00.194Z,17.54
2022-09-27T11:01:43.187Z,17.92
2022-09-27T11:04:31.497Z,17.98
2022-09-27T11:07:12.695Z,17.45
2022-09-27T11:09:48.625Z,17.67
2022-09-27T11:12:20.601Z,17.60
2022-09-27T11:14:57.981Z,17.37
2022-09-27T11:17:32.464Z,17.93
2022-09-27T11:20:11.341Z,17.97
2022-09-27T11:22:38.131Z,17.97
2022-09-27T11:25:20.864Z,18.00
2022-09-27T11:28:10.579Z,18.07
2022-09-27T11:31:16.332Z,18.18
2022-09-27T11:34:00.676Z,18.37
2022-09-27T11:37:00.937Z,18.56
2022-09-27T11:39:42.406Z,18.73
2022-09-27T11:42:50.510Z,18.74
2022-09-27T11:46:03.014Z,18.94
2022-09-27T11:48:45.463Z,19.08
2022-09-27T11:51:45.863Z,19.14
2022-09-27T11:54:45.668Z,19.15
2022-09-27T11:57:23.262Z,18.80
2022-09-27T12:00:10.505Z,19.16
2022-09-27T12:03:10.669Z,19.23
2022-09-27T12:06:03.577Z,19.19
2022-09-27T12:08:47.704Z,19.11
2022-09-27T12:11:28.577Z,18.63
2022-09-27T12:14:32.743Z,19.30
2022-09-27T12:17:05.743Z,18.96
2022-09-27T12:19:41.803Z,19.23
2022-09-27T12:22:34.691Z,18.72
2022-09-27T12:25:20.267Z,18.77
2022-09-27T12:28:14.815Z,19.54
2022-09-27T12:30:43.225Z,19.62
2022-09-27T12:33:18.583Z,19.66
2022-09-27T12:35:56.897Z,19.68
2022-09-27T12:38:30.564Z,19.55
2022-09-27T12:40:58.777Z,19.55
2022-09-27T12:43:36.596Z,18.84
2022-09-27T12:46:57.475Z,19.12
2022-09-27T12:49:32.685Z,19.30
2022-09-27T12:52:11.911Z,18.77
2022-09-27T12:55:20.164Z,19.05
2022-09-27T12:58:08.715Z,19.04
2022-09-27T13:00:48.522Z,19.02
2022-09-27T13:03:40.996Z,18.06
2022-09-27T13:06:17.634Z,20.07
2022-09-27T13:09:11.255Z,21.23
2022-09-27T13:11:58.937Z,21.20
2022-09-27T13:14:28.296Z,20.16
2022-09-27T13:16:57.496Z,19.94
2022-09-27T13:19:38.736Z,19.67
2022-09-27T13:22:30.889Z,19.33
2022-09-27T13:25:55.925Z,19.34
2022-09-27T13:28:35.604Z,19.41
2022-09-27T13:31:10.919Z,19.12
2022-09-27T13:33:51.715Z,19.55
2022-09-27T13:36:30.653Z,19.80
2022-09-27T13:39:17.779Z,19.57
2022-09-27T13:42:35.459Z,19.62
2022-09-27T13:45:13.956Z,20.01
2022-09-27T13:47:45.946Z,19.26
2022-09-27T13:50:29.373Z,19.91
2022-09-27T13:53:18.467Z,19.87
2022-09-27T13:55:50.267Z,19.80
2022-09-27T13:59:14.272Z,19.75
2022-09-27T14:02:09.450Z,19.52
2022-09-27T14:04:42.292Z,18.90
2022-09-27T14:07:32.098Z,19.14
2022-09-27T14:10:01.446Z,18.87
2022-09-27T14:12:37.788Z,17.84
2022-09-27T14:15:25.659Z,16.94
2022-09-27T14:17:55.840Z,16.20
2022-09-27T14:24:00.075Z,15.48
2022-09-27T14:26:29.305Z,15.22
2022-09-27T14:28:56.140Z,14.85
2022-09-27T14:31:32.966Z,14.56
2022-09-27T14:34:25.946Z,14.42
2022-09-27T14:37:14.067Z,14.69
2022-09-27T14:40:09.931Z,14.28
2022-09-27T14:43:00.973Z,14.58
2022-09-27T14:45:38.814Z,14.69
2022-09-27T14:48:20.506Z,15.09
2022-09-27T14:54:01.215Z,15.30
2022-09-27T14:56:33.453Z,15.41
2022-09-27T14:59:37.827Z,15.28
2022-09-27T15:02:17.815Z,15.60
2022-09-27T15:05:43.490Z,16.22
2022-09-27T15:08:10.165Z,18.19
2022-09-27T15:10:39.579Z,19.79
2022-09-27T15:13:07.069Z,20.17
2022-09-27T15:15:40.162Z,20.83
2022-09-27T15:18:30.687Z,19.18
2022-09-27T15:21:00.653Z,19.71
2022-09-27T15:23:38.639Z,20.10
2022-09-27T15:26:18.788Z,20.62
2022-09-27T15:28:46.806Z,19.64
2022-09-27T15:31:14.450Z,20.24
2022-09-27T15:33:44.026Z,20.84
2022-09-27T15:36:11.731Z,20.08
2022-09-27T15:38:47.452Z,20.27
2022-09-27T15:41:14.361Z,19.51
2022-09-27T15:43:49.367Z,19.00
2022-09-27T15:46:22.453Z,18.26
2022-09-27T15:49:17.357Z,17.55
2022-09-27T15:51:47.904Z,16.84
2022-09-27T15:54:21.478Z,16.71
2022-09-27T15:56:54.481Z,16.46
2022-09-27T15:59:29.684Z,16.38
2022-09-27T16:02:02.049Z,15.76
2022-09-27T16:04:32.614Z,15.66
2022-09-27T16:07:01.366Z,15.18
2022-09-27T16:09:30.486Z,15.25
2022-09-27T16:11:57.612Z,15.42
2022-09-27T16:14:24.516Z,15.80
2022-09-27T16:16:53.495Z,15.75
2022-09-27T16:19:20.834Z,15.68
2022-09-27T16:21:49.903Z,15.21
2022-09-27T16:24:17.351Z,15.30
2022-09-27T16:26:49.251Z,15.32
2022-09-27T16:29:16.847Z,15.57
2022-09-27T16:31:44.261Z,15.14
2022-09-27T16:34:14.122Z,15.24
2022-09-27T16:36:41.161Z,15.10
2022-09-27T16:39:10.929Z,14.63
2022-09-27T16:41:37.612Z,14.54
2022-09-27T16:44:08.173Z,14.17
2022-09-27T16:46:41.056Z,14.78
2022-09-27T16:49:27.924Z,14.86
2022-09-27T16:52:00.470Z,14.26
2022-09-27T16:54:30.896Z,14.96
2022-09-27T16:57:01.207Z,14.64
2022-09-27T16:59:30.254Z,14.76
2022-09-27T17:01:59.285Z,14.75
2022-09-27T17:04:27.765Z,14.54
2022-09-27T17:06:55.509Z,14.47
2022-09-27T17:09:22.286Z,14.24
2022-09-27T17:11:49.032Z,14.19
2022-09-27T17:14:18.216Z,13.85
2022-09-27T17:16:48.575Z,14.13
2022-09-27T17:19:18.647Z,14.16
2022-09-27T17:21:46.133Z,13.89
2022-09-27T17:24:13.040Z,13.62
2022-09-27T17:26:40.369Z,13.35
2022-09-27T17:29:11.796Z,14.12
2022-09-27T17:31:40.413Z,13.03
2022-09-27T17:34:12.314Z,13.78
2022-09-27T17:36:44.327Z,14.27
2022-09-27T17:39:13.457Z,14.33
2022-09-27T17:41:43.747Z,14.32
2022-09-27T17:44:15.192Z,14.25
2022-09-27T17:46:46.632Z,14.29
2022-09-27T17:49:33.077Z,13.80
2022-09-27T17:52:00.685Z,13.80
2022-09-27T17:54:28.252Z,14.12
2022-09-27T17:56:57.295Z,14.37
2022-09-27T17:59:26.954Z,13.88
2022-09-27T18:01:53.810Z,13.91
2022-09-27T18:04:20.679Z,14.08
2022-09-27T18:06:49.939Z,14.44
2022-09-27T18:09:17.362Z,14.45
2022-09-27T18:11:44.894Z,14.48
2022-09-27T18:14:12.422Z,14.01
2022-09-27T18:16:43.138Z,14.51
2022-09-27T18:19:15.699Z,14.54
2022-09-27T18:21:50.178Z,14.58
2022-09-27T18:24:26.216Z,14.56
2022-09-27T18:26:54.406Z,14.46
2022-09-27T18:29:21.505Z,13.87
2022-09-27T18:31:49.229Z,14.10
2022-09-27T18:34:18.736Z,14.38
2022-09-27T18:36:46.147Z,14.24
2022-09-27T18:39:17.409Z,13.47
2022-09-27T18:41:45.565Z,14.23
2022-09-27T18:44:14.395Z,14.39
2022-09-27T18:46:41.193Z,13.89
2022-09-27T18:49:12.238Z,14.13
2022-09-27T18:51:43.757Z,14.04
2022-09-27T18:54:21.497Z,13.73
2022-09-27T18:56:52.393Z,13.73
2022-09-27T18:59:20.907Z,13.93
2022-09-27T19:01:47.915Z,13.70
2022-09-27T19:04:25.844Z,14.31
2022-09-27T19:06:55.782Z,13.72
2022-09-27T19:09:22.740Z,13.99
2022-09-27T19:11:49.577Z,13.74
2022-09-27T19:14:23.409Z,13.88
2022-09-27T19:16:52.486Z,14.20
2022-09-27T19:19:26.125Z,14.23
2022-09-27T19:21:55.012Z,14.20
2022-09-27T19:24:21.734Z,14.23
2022-09-27T19:26:50.009Z,14.34
2022-09-27T19:29:16.953Z,13.47
2022-09-27T19:31:48.597Z,13.79
2022-09-27T19:34:17.619Z,14.26
2022-09-27T19:36:44.312Z,14.28
2022-09-27T19:39:11.067Z,14.01
2022-09-27T19:41:37.834Z,14.18
2022-09-27T19:44:06.899Z,13.07
2022-09-27T19:46:35.881Z,13.82
2022-09-27T19:49:05.204Z,14.05
2022-09-27T19:51:32.542Z,14.04
2022-09-27T19:53:59.258Z,13.94
2022-09-27T19:56:26.065Z,13.52
2022-09-27T19:58:52.956Z,14.10
2022-09-27T20:01:22.547Z,14.16
2022-09-27T20:03:50.726Z,14.19
2022-09-27T20:06:23.127Z,13.82
2022-09-27T20:08:50.144Z,13.57
2022-09-27T20:11:23.526Z,13.85
2022-09-27T20:13:56.500Z,13.84
2022-09-27T20:16:27.152Z,14.26
2022-09-27T20:18:56.054Z,13.65
2022-09-27T20:21:25.648Z,14.35
2022-09-27T20:23:54.963Z,14.20
2022-09-27T20:26:22.601Z,14.49
2022-09-27T20:28:54.295Z,14.31
2022-09-27T20:31:37.233Z,14.51
2022-09-27T20:34:05.998Z,14.53
2022-09-27T20:36:37.697Z,14.44
2022-09-27T20:39:06.547Z,14.42
2022-09-27T20:41:41.115Z,14.56
2022-09-27T20:44:31.977Z,14.55
2022-09-27T20:47:03.942Z,14.56
2022-09-27T20:49:33.338Z,14.19
2022-09-27T20:52:07.148Z,14.57
2022-09-27T20:54:33.997Z,14.04
2022-09-27T20:57:01.003Z,13.15
2022-09-27T20:59:30.368Z,14.23
2022-09-27T21:02:01.948Z,13.79
2022-09-27T21:04:30.378Z,13.41
2022-09-27T21:06:58.454Z,14.34
2022-09-27T21:09:25.192Z,13.20
2022-09-27T21:11:56.665Z,14.34
2022-09-27T21:14:23.385Z,14.38
2022-09-27T21:16:50.124Z,14.36
2022-09-27T21:19:19.316Z,14.10
2022-09-27T21:21:46.182Z,13.95
2022-09-27T21:24:15.101Z,13.71
2022-09-27T21:26:41.793Z,14.18
2022-09-27T21:29:09.731Z,14.12
2022-09-27T21:31:38.098Z,14.01
2022-09-27T21:34:07.570Z,13.63
2022-09-27T21:36:37.431Z,13.49
2022-09-27T21:39:05.643Z,13.61
2022-09-27T21:41:34.750Z,13.48
2022-09-27T21:44:05.822Z,13.51
2022-09-27T21:46:32.752Z,13.36
2022-09-27T21:49:02.431Z,12.90
2022-09-27T21:51:37.938Z,12.58
2022-09-27T21:54:07.460Z,13.26
2022-09-27T21:56:36.691Z,13.18
2022-09-27T21:59:04.097Z,13.16
2022-09-27T22:01:33.007Z,13.24
2022-09-27T22:04:01.225Z,13.25
2022-09-27T22:06:32.844Z,13.30
2022-09-27T22:09:00.924Z,13.11
2022-09-27T22:11:34.471Z,13.22
2022-09-27T22:14:03.550Z,13.11
2022-09-27T22:16:34.681Z,12.57
2022-09-27T22:19:01.710Z,13.13
2022-09-27T22:21:36.739Z,13.14
2022-09-27T22:24:08.041Z,13.00
2022-09-27T22:26:37.446Z,13.15
2022-09-27T22:29:09.595Z,13.21
2022-09-27T22:31:38.884Z,12.94
2022-09-27T22:34:16.150Z,13.16
2022-09-27T22:36:44.884Z,12.62
2022-09-27T22:39:12.398Z,12.75
2022-09-27T22:41:41.631Z,12.42
2022-09-27T22:44:08.592Z,13.05
2022-09-27T22:46:37.958Z,13.02
2022-09-27T22:49:06.942Z,12.95
2022-09-27T22:51:33.637Z,13.09
2022-09-27T22:54:02.750Z,12.80
2022-09-27T22:56:29.462Z,12.58
2022-09-27T22:58:56.125Z,12.34
2022-09-27T23:01:24.644Z,12.12
2022-09-27T23:03:52.762Z,12.40
2022-09-27T23:06:20.760Z,12.88
2022-09-27T23:08:47.999Z,12.74
2022-09-27T23:11:17.837Z,12.84
2022-09-27T23:13:45.036Z,12.36
2022-09-27T23:16:14.118Z,12.61
2022-09-27T23:18:44.417Z,12.13
2022-09-27T23:21:12.649Z,12.74
2022-09-27T23:23:44.793Z,12.65
2022-09-27T23:26:17.527Z,11.98
2022-09-27T23:28:44.706Z,12.63
2022-09-27T23:31:16.841Z,12.64
2022-09-27T23:33:46.255Z,12.65
2022-09-27T23:36:15.279Z,12.64
2022-09-27T23:38:42.576Z,12.67
2022-09-27T23:41:11.482Z,12.68
2022-09-27T23:43:38.991Z,12.74
2022-09-27T23:46:07.189Z,12.70
2022-09-27T23:48:37.068Z,12.70
2022-09-27T23:51:05.882Z,12.63
2022-09-27T23:53:33.073Z,11.84
2022-09-27T23:56:15.099Z,12.61
2022-09-27T23:58:47.479Z,12.54
